Weather at Hindon Air Force Station

Public forecast

Using degrees Celsius for public forecast. Weather courtesy of forecast.io.

Closest aviation weather report (METAR) to Hindon Air Force Station

Report is more than 6 hours old.

Closest report is Safdarjung Airport, 10.9 nm (20.3 km) SW. Retrieved 2021/09/16 03:00 UTC (24 hours ago):

VIDD 160300Z 25004KT 3000 -RA BKN025 FEW030CB OVC080 25/25 Q1006 TEMPO 1200 TSRA

Aviation forecast (TAF) for Hindon Air Force Station

Forecast is more than 12 hours old.

Retrieved 2021/02/15 12:30 UTC (7 months ago):

TAF VIDX 150930Z 1512/1600 10005KT 6000 FEW040 SCT100 BKN200 BECMG 1515/1516 05005KT 5000 HZ BECMG 1518/1520 00000KT 3000 BR FEW040 SCT100 BECMG 1521/1523 1200 BR